• Join FlightAware (Why Join?)
  • Login
  • US Flag 
06:56PM EDT


 

Airport Tracker/Info


-or-


 

Live Flight TrackerFlight Track Log ✈ EJA929 ✈ 14-Jul-2013 ✈ KLAX - KSJC

Flight Track Log - Related Links

Times and Time Zones

All times are in EDT time to prevent confusion due to time zone crossing. See the EJA929 flight status page for this flight to view local times or setup timezone preferences in your user account.

Time Position Orientation Groundspeed Altitude Reporting Facility
EDT Latitude Longitude Course Direction KTS MPH feet Rate Location/Type
01:57AM 33.9358 -118.4325 262° West 207 238 1,600  Level Los Angeles Center
01:58AM 33.9244 -118.5261 262° West 264 304 6,100 4,500 Climbing Los Angeles Center
01:59AM 33.9189 -118.6161 266° West 271 312 10,800 3,300 Climbing Los Angeles Center
02:00AM 33.9139 -118.7292 267° West 347 399 12,900 1,920 Climbing Los Angeles Center
02:01AM 33.9094 -118.8439 267° West 377 434 14,800 2,100 Climbing Los Angeles Center
02:02AM 33.9725 -118.9719 301° West 393 452 17,200 2,040 Climbing Los Angeles Center
02:03AM 34.0575 -119.0539 321° Northwest 391 450 19,000 1,740 Climbing Los Angeles Center
02:04AM 34.1428 -119.1383 321° Northwest 394 453 20,800 1,740 Climbing Los Angeles Center
02:05AM 34.2292 -119.2239 321° Northwest 402 463 22,600 1,680 Climbing Los Angeles Center
02:06AM 34.3172 -119.3114 321° Northwest 408 470 24,300 1,620 Climbing Los Angeles Center
02:07AM 34.4081 -119.4019 321° Northwest 420 483 26,000 1,620 Climbing Los Angeles Center
02:08AM 34.4997 -119.4947 320° Northwest 428 493 27,600 960 Climbing Los Angeles Center
02:09AM 34.5967 -119.5925 320° Northwest 451 519 28,000 180 Climbing Los Angeles Center
02:10AM 34.6961 -119.6903 321° Northwest 482 555 28,000  Level Los Angeles Center
02:11AM 34.8292 -119.8231 321° Northwest 510 587 28,000  Level Los Angeles Center
02:12AM 34.9411 -119.9364 320° Northwest 522 601 28,000  Level Los Angeles Center
02:13AM 35.0544 -120.0494 321° Northwest 525 604 28,000  Level Los Angeles Center
02:14AM 35.1631 -120.1611 320° Northwest 525 604 28,000  Level Los Angeles Center
02:15AM 35.2733 -120.2739 320° Northwest 523 602 28,000  Level Los Angeles Center
02:16AM 35.3847 -120.3872 320° Northwest 525 604 28,000  Level Los Angeles Center
02:17AM 35.4939 -120.5036 319° Northwest 526 605 28,000  Level Los Angeles Center
02:18AM 35.6044 -120.6158 320° Northwest 519 597 28,000  Level Los Angeles Center
02:19AM 35.7061 -120.7233 319° Northwest 519 597 28,000  Level Oakland Center
02:20AM 35.8394 -120.8608 320° Northwest 521 600 28,000 -420 Level Oakland Center
02:21AM 35.9486 -120.9767 319° Northwest 517 595 27,200 -1,200 Descending Oakland Center
02:22AM 36.0661 -121.0858 323° Northwest 527 606 25,600 -1,620 Descending Oakland Center
02:23AM 36.1831 -121.1839 326° Northwest 508 585 24,000 -1,620 Descending Oakland Center
02:24AM 36.2953 -121.2808 325° Northwest 494 568 22,400 -1,920 Descending Oakland Center
02:25AM 36.4039 -121.3697 327° Northwest 477 549 20,200 -2,400 Descending Oakland Center
02:26AM 36.5283 -121.4217 341° North 467 537 17,600 -2,700 Descending Oakland Center
02:27AM 36.6453 -121.4744 340° North 449 517 14,800 -2,580 Descending Oakland Center
02:28AM 36.7514 -121.5211 341° North 404 465 12,500 -1,980 Descending Oakland Center
02:30AM 36.8311 -121.5597 339° North 348 400 10,900 -1,740 Descending Oakland Center
02:31AM 36.9117 -121.6000 338° Northwest 317 365 9,100 -2,040 Descending Oakland Center
02:32AM 36.9928 -121.6342 341° North 309 356 6,800 -2,040 Descending Oakland Center
02:33AM 37.0714 -121.6700 340° North 303 349 5,000 -960 Descending Oakland Center
02:34AM 37.1514 -121.7056 340° North 257 296 4,900 -600 Descending Oakland Center
02:35AM 37.2042 -121.7533 324° Northwest 242 278 3,800 -1,080 Descending Oakland Center
02:36AM 37.2439 -121.8017 316° Northwest 218 251 2,800 -960 Descending Oakland Center
02:37AM 37.2806 -121.8433 318° Northwest 196 226 1,900 -900 Descending Oakland Center
02:38AM 37.3153 -121.8797 320° Northwest 174 200 1,100 -780 Descending Oakland Center
02:39AM 37.3411 -121.9083 319° Northwest 143 165 400 -720 Descending Oakland Center
02:41AM 37.3500 -121.9167 North  Level FlightAware Approximate
02:48AM 37.3627 -121.9291 North  Level Estimated